sensor_id;sensor_type;location;lat;lon;timestamp;P1;durP1;ratioP1;P2;durP2;ratioP2
26335;SDS011;14047;50.936;4.654;2024-02-26T00:00:25;1.40;;;1.02;;
26335;SDS011;14047;50.936;4.654;2024-02-26T00:02:51;4.15;;;1.10;;
26335;SDS011;14047;50.936;4.654;2024-02-26T00:05:17;1.77;;;0.80;;
26335;SDS011;14047;50.936;4.654;2024-02-26T00:07:43;2.25;;;0.80;;
26335;SDS011;14047;50.936;4.654;2024-02-26T00:10:10;7.25;;;1.15;;
26335;SDS011;14047;50.936;4.654;2024-02-26T00:12:36;2.15;;;0.88;;
26335;SDS011;14047;50.936;4.654;2024-02-26T00:15:05;2.22;;;0.90;;
26335;SDS011;14047;50.936;4.654;2024-02-26T00:17:31;1.88;;;0.80;;
26335;SDS011;14047;50.936;4.654;2024-02-26T00:19:58;2.33;;;0.90;;
26335;SDS011;14047;50.936;4.654;2024-02-26T00:22:26;2.03;;;0.82;;
26335;SDS011;14047;50.936;4.654;2024-02-26T00:24:52;2.40;;;0.95;;
26335;SDS011;14047;50.936;4.654;2024-02-26T00:27:18;3.05;;;0.98;;
26335;SDS011;14047;50.936;4.654;2024-02-26T00:29:44;2.95;;;1.02;;
26335;SDS011;14047;50.936;4.654;2024-02-26T00:32:09;1.60;;;0.98;;
26335;SDS011;14047;50.936;4.654;2024-02-26T00:34:35;1.40;;;0.90;;
26335;SDS011;14047;50.936;4.654;2024-02-26T00:37:01;1.30;;;0.82;;
26335;SDS011;14047;50.936;4.654;2024-02-26T00:39:27;2.15;;;0.80;;
26335;SDS011;14047;50.936;4.654;2024-02-26T00:41:53;1.27;;;0.85;;
26335;SDS011;14047;50.936;4.654;2024-02-26T00:44:19;2.78;;;1.17;;
26335;SDS011;14047;50.936;4.654;2024-02-26T00:46:45;2.65;;;1.00;;
26335;SDS011;14047;50.936;4.654;2024-02-26T00:49:11;2.45;;;1.20;;
26335;SDS011;14047;50.936;4.654;2024-02-26T00:51:37;1.55;;;0.70;;
26335;SDS011;14047;50.936;4.654;2024-02-26T00:54:03;1.45;;;0.85;;
26335;SDS011;14047;50.936;4.654;2024-02-26T00:56:29;3.25;;;1.05;;
26335;SDS011;14047;50.936;4.654;2024-02-26T00:58:55;1.85;;;0.80;;
26335;SDS011;14047;50.936;4.654;2024-02-26T01:01:21;3.53;;;1.85;;
26335;SDS011;14047;50.936;4.654;2024-02-26T01:03:47;1.80;;;1.00;;
26335;SDS011;14047;50.936;4.654;2024-02-26T01:06:13;2.92;;;1.15;;
26335;SDS011;14047;50.936;4.654;2024-02-26T01:08:39;2.33;;;0.93;;
26335;SDS011;14047;50.936;4.654;2024-02-26T01:11:05;2.92;;;0.80;;
26335;SDS011;14047;50.936;4.654;2024-02-26T01:13:31;2.70;;;1.20;;
26335;SDS011;14047;50.936;4.654;2024-02-26T01:15:57;1.80;;;1.00;;
26335;SDS011;14047;50.936;4.654;2024-02-26T01:18:23;3.10;;;0.98;;
26335;SDS011;14047;50.936;4.654;2024-02-26T01:20:48;3.88;;;1.02;;
26335;SDS011;14047;50.936;4.654;2024-02-26T01:23:14;4.50;;;1.23;;
26335;SDS011;14047;50.936;4.654;2024-02-26T01:25:40;1.75;;;0.95;;
26335;SDS011;14047;50.936;4.654;2024-02-26T01:28:08;3.72;;;1.00;;
26335;SDS011;14047;50.936;4.654;2024-02-26T01:30:34;1.30;;;0.77;;
26335;SDS011;14047;50.936;4.654;2024-02-26T01:32:59;1.35;;;0.80;;
26335;SDS011;14047;50.936;4.654;2024-02-26T01:35:25;3.22;;;0.95;;
26335;SDS011;14047;50.936;4.654;2024-02-26T01:37:51;3.47;;;0.77;;
26335;SDS011;14047;50.936;4.654;2024-02-26T01:40:17;2.58;;;1.05;;
26335;SDS011;14047;50.936;4.654;2024-02-26T01:42:45;1.40;;;0.68;;
26335;SDS011;14047;50.936;4.654;2024-02-26T01:45:16;1.75;;;1.10;;
26335;SDS011;14047;50.936;4.654;2024-02-26T01:47:52;3.22;;;1.05;;
26335;SDS011;14047;50.936;4.654;2024-02-26T01:50:19;3.67;;;0.70;;
26335;SDS011;14047;50.936;4.654;2024-02-26T01:52:47;2.33;;;0.98;;
26335;SDS011;14047;50.936;4.654;2024-02-26T01:55:15;1.45;;;0.80;;
26335;SDS011;14047;50.936;4.654;2024-02-26T01:57:43;1.52;;;0.90;;
26335;SDS011;14047;50.936;4.654;2024-02-26T02:00:10;5.05;;;1.10;;
26335;SDS011;14047;50.936;4.654;2024-02-26T02:02:37;2.10;;;0.82;;
26335;SDS011;14047;50.936;4.654;2024-02-26T02:05:05;4.72;;;0.98;;
26335;SDS011;14047;50.936;4.654;2024-02-26T02:07:33;2.00;;;0.90;;
26335;SDS011;14047;50.936;4.654;2024-02-26T02:10:00;1.38;;;1.15;;
26335;SDS011;14047;50.936;4.654;2024-02-26T02:12:28;2.58;;;0.90;;
26335;SDS011;14047;50.936;4.654;2024-02-26T02:14:54;0.90;;;0.70;;
26335;SDS011;14047;50.936;4.654;2024-02-26T02:17:20;1.85;;;0.88;;
26335;SDS011;14047;50.936;4.654;2024-02-26T02:19:46;2.08;;;1.00;;
26335;SDS011;14047;50.936;4.654;2024-02-26T02:22:12;1.98;;;0.80;;
26335;SDS011;14047;50.936;4.654;2024-02-26T02:24:38;1.23;;;0.90;;
26335;SDS011;14047;50.936;4.654;2024-02-26T02:27:04;1.30;;;1.00;;
26335;SDS011;14047;50.936;4.654;2024-02-26T02:29:30;2.45;;;0.75;;
26335;SDS011;14047;50.936;4.654;2024-02-26T02:31:56;1.65;;;1.05;;
26335;SDS011;14047;50.936;4.654;2024-02-26T02:34:22;1.67;;;1.00;;
26335;SDS011;14047;50.936;4.654;2024-02-26T02:36:51;1.20;;;0.95;;
26335;SDS011;14047;50.936;4.654;2024-02-26T02:39:17;2.65;;;1.55;;
26335;SDS011;14047;50.936;4.654;2024-02-26T02:41:43;1.50;;;0.77;;
26335;SDS011;14047;50.936;4.654;2024-02-26T02:44:09;3.45;;;1.27;;
26335;SDS011;14047;50.936;4.654;2024-02-26T02:46:35;1.77;;;0.90;;
26335;SDS011;14047;50.936;4.654;2024-02-26T02:49:01;1.23;;;1.10;;
26335;SDS011;14047;50.936;4.654;2024-02-26T02:51:27;2.70;;;1.27;;
26335;SDS011;14047;50.936;4.654;2024-02-26T02:53:53;1.55;;;1.15;;
26335;SDS011;14047;50.936;4.654;2024-02-26T02:56:19;1.80;;;1.17;;
26335;SDS011;14047;50.936;4.654;2024-02-26T02:58:45;1.67;;;1.00;;
26335;SDS011;14047;50.936;4.654;2024-02-26T03:01:12;2.10;;;1.10;;
26335;SDS011;14047;50.936;4.654;2024-02-26T03:03:38;1.23;;;0.88;;
26335;SDS011;14047;50.936;4.654;2024-02-26T03:06:04;2.85;;;1.30;;
26335;SDS011;14047;50.936;4.654;2024-02-26T03:08:30;1.40;;;0.90;;
26335;SDS011;14047;50.936;4.654;2024-02-26T03:10:58;1.27;;;1.02;;
26335;SDS011;14047;50.936;4.654;2024-02-26T03:13:24;1.98;;;0.88;;
26335;SDS011;14047;50.936;4.654;2024-02-26T03:15:50;1.70;;;1.00;;
26335;SDS011;14047;50.936;4.654;2024-02-26T03:18:16;1.92;;;1.02;;
26335;SDS011;14047;50.936;4.654;2024-02-26T03:20:42;2.25;;;0.95;;
26335;SDS011;14047;50.936;4.654;2024-02-26T03:23:08;1.65;;;1.00;;
26335;SDS011;14047;50.936;4.654;2024-02-26T03:25:38;1.20;;;0.88;;
26335;SDS011;14047;50.936;4.654;2024-02-26T03:28:04;3.00;;;1.20;;
26335;SDS011;14047;50.936;4.654;2024-02-26T03:30:30;1.67;;;0.82;;
26335;SDS011;14047;50.936;4.654;2024-02-26T03:32:56;3.55;;;1.20;;
26335;SDS011;14047;50.936;4.654;2024-02-26T03:35:22;3.70;;;1.30;;
26335;SDS011;14047;50.936;4.654;2024-02-26T03:37:48;1.73;;;1.00;;
26335;SDS011;14047;50.936;4.654;2024-02-26T03:40:15;2.50;;;1.30;;
26335;SDS011;14047;50.936;4.654;2024-02-26T03:42:43;3.08;;;1.45;;
26335;SDS011;14047;50.936;4.654;2024-02-26T03:45:09;2.72;;;1.55;;
26335;SDS011;14047;50.936;4.654;2024-02-26T03:47:37;4.40;;;1.85;;
26335;SDS011;14047;50.936;4.654;2024-02-26T03:50:06;6.30;;;2.20;;
26335;SDS011;14047;50.936;4.654;2024-02-26T03:52:33;5.07;;;2.53;;
26335;SDS011;14047;50.936;4.654;2024-02-26T03:54:59;3.42;;;2.58;;
26335;SDS011;14047;50.936;4.654;2024-02-26T03:57:25;2.70;;;2.20;;
26335;SDS011;14047;50.936;4.654;2024-02-26T03:59:51;4.72;;;2.60;;
26335;SDS011;14047;50.936;4.654;2024-02-26T04:02:18;3.80;;;2.10;;
26335;SDS011;14047;50.936;4.654;2024-02-26T04:04:45;4.47;;;2.50;;
26335;SDS011;14047;50.936;4.654;2024-02-26T04:07:12;3.70;;;2.58;;
26335;SDS011;14047;50.936;4.654;2024-02-26T04:09:38;4.10;;;2.35;;
26335;SDS011;14047;50.936;4.654;2024-02-26T04:12:04;5.10;;;2.78;;
26335;SDS011;14047;50.936;4.654;2024-02-26T04:14:31;3.65;;;2.42;;
26335;SDS011;14047;50.936;4.654;2024-02-26T04:16:57;4.45;;;2.30;;
26335;SDS011;14047;50.936;4.654;2024-02-26T04:19:22;3.63;;;2.60;;
26335;SDS011;14047;50.936;4.654;2024-02-26T04:21:48;4.22;;;2.65;;
26335;SDS011;14047;50.936;4.654;2024-02-26T04:24:14;4.97;;;2.65;;
26335;SDS011;14047;50.936;4.654;2024-02-26T04:26:40;4.90;;;2.60;;
26335;SDS011;14047;50.936;4.654;2024-02-26T04:29:06;6.68;;;3.47;;
26335;SDS011;14047;50.936;4.654;2024-02-26T04:31:32;4.47;;;2.33;;
26335;SDS011;14047;50.936;4.654;2024-02-26T04:33:59;5.75;;;2.72;;
26335;SDS011;14047;50.936;4.654;2024-02-26T04:36:24;3.97;;;2.50;;
26335;SDS011;14047;50.936;4.654;2024-02-26T04:38:53;3.17;;;1.90;;
26335;SDS011;14047;50.936;4.654;2024-02-26T04:41:22;5.07;;;3.03;;
26335;SDS011;14047;50.936;4.654;2024-02-26T04:43:48;5.35;;;3.40;;
26335;SDS011;14047;50.936;4.654;2024-02-26T04:46:14;6.38;;;3.28;;
26335;SDS011;14047;50.936;4.654;2024-02-26T04:48:40;6.25;;;3.50;;
26335;SDS011;14047;50.936;4.654;2024-02-26T04:51:07;5.57;;;3.25;;
26335;SDS011;14047;50.936;4.654;2024-02-26T04:53:33;6.10;;;3.63;;
26335;SDS011;14047;50.936;4.654;2024-02-26T04:55:59;5.32;;;3.30;;
26335;SDS011;14047;50.936;4.654;2024-02-26T04:58:25;7.90;;;4.32;;
26335;SDS011;14047;50.936;4.654;2024-02-26T05:00:51;6.20;;;3.83;;
26335;SDS011;14047;50.936;4.654;2024-02-26T05:03:17;8.18;;;4.13;;
26335;SDS011;14047;50.936;4.654;2024-02-26T05:05:43;6.80;;;4.20;;
26335;SDS011;14047;50.936;4.654;2024-02-26T05:08:09;8.80;;;5.20;;
26335;SDS011;14047;50.936;4.654;2024-02-26T05:10:36;9.57;;;5.20;;
26335;SDS011;14047;50.936;4.654;2024-02-26T05:13:06;10.90;;;6.28;;
26335;SDS011;14047;50.936;4.654;2024-02-26T05:15:32;4.20;;;2.72;;
26335;SDS011;14047;50.936;4.654;2024-02-26T05:17:58;9.18;;;5.47;;
26335;SDS011;14047;50.936;4.654;2024-02-26T05:20:24;10.00;;;5.95;;
26335;SDS011;14047;50.936;4.654;2024-02-26T05:22:51;12.73;;;7.03;;
26335;SDS011;14047;50.936;4.654;2024-02-26T05:25:17;13.80;;;6.20;;
26335;SDS011;14047;50.936;4.654;2024-02-26T05:27:43;10.77;;;6.30;;
26335;SDS011;14047;50.936;4.654;2024-02-26T05:30:10;11.82;;;6.35;;
26335;SDS011;14047;50.936;4.654;2024-02-26T05:32:36;10.82;;;6.68;;
26335;SDS011;14047;50.936;4.654;2024-02-26T05:35:03;7.80;;;4.53;;
26335;SDS011;14047;50.936;4.654;2024-02-26T05:37:29;8.95;;;5.70;;
26335;SDS011;14047;50.936;4.654;2024-02-26T05:39:55;8.48;;;6.05;;
26335;SDS011;14047;50.936;4.654;2024-02-26T05:42:21;12.75;;;6.38;;
26335;SDS011;14047;50.936;4.654;2024-02-26T05:44:47;10.10;;;6.00;;
26335;SDS011;14047;50.936;4.654;2024-02-26T05:47:13;11.02;;;5.95;;
26335;SDS011;14047;50.936;4.654;2024-02-26T05:49:39;9.50;;;6.65;;
26335;SDS011;14047;50.936;4.654;2024-02-26T05:52:05;10.18;;;6.63;;
26335;SDS011;14047;50.936;4.654;2024-02-26T05:54:31;12.05;;;6.22;;
26335;SDS011;14047;50.936;4.654;2024-02-26T05:56:58;10.27;;;6.18;;
26335;SDS011;14047;50.936;4.654;2024-02-26T05:59:23;9.00;;;5.90;;
26335;SDS011;14047;50.936;4.654;2024-02-26T06:01:49;10.40;;;6.13;;
26335;SDS011;14047;50.936;4.654;2024-02-26T06:04:15;9.85;;;5.65;;
26335;SDS011;14047;50.936;4.654;2024-02-26T06:06:44;8.13;;;5.55;;
26335;SDS011;14047;50.936;4.654;2024-02-26T06:09:15;8.07;;;5.78;;
26335;SDS011;14047;50.936;4.654;2024-02-26T06:11:40;9.43;;;5.65;;
26335;SDS011;14047;50.936;4.654;2024-02-26T06:14:06;8.52;;;5.75;;
26335;SDS011;14047;50.936;4.654;2024-02-26T06:16:32;9.90;;;5.93;;
26335;SDS011;14047;50.936;4.654;2024-02-26T06:18:58;7.70;;;5.85;;
26335;SDS011;14047;50.936;4.654;2024-02-26T06:21:25;9.25;;;5.80;;
26335;SDS011;14047;50.936;4.654;2024-02-26T06:23:51;8.32;;;4.82;;
26335;SDS011;14047;50.936;4.654;2024-02-26T06:26:17;8.98;;;5.93;;
26335;SDS011;14047;50.936;4.654;2024-02-26T06:28:43;6.07;;;4.53;;
26335;SDS011;14047;50.936;4.654;2024-02-26T06:31:09;10.75;;;7.25;;
26335;SDS011;14047;50.936;4.654;2024-02-26T06:33:35;10.23;;;7.38;;
26335;SDS011;14047;50.936;4.654;2024-02-26T06:36:01;9.00;;;6.85;;
26335;SDS011;14047;50.936;4.654;2024-02-26T06:38:28;11.75;;;6.60;;
26335;SDS011;14047;50.936;4.654;2024-02-26T06:40:54;12.27;;;7.35;;
26335;SDS011;14047;50.936;4.654;2024-02-26T06:43:19;11.48;;;7.57;;
26335;SDS011;14047;50.936;4.654;2024-02-26T06:45:45;13.02;;;8.02;;
26335;SDS011;14047;50.936;4.654;2024-02-26T06:48:11;10.65;;;7.53;;
26335;SDS011;14047;50.936;4.654;2024-02-26T06:50:37;9.18;;;6.47;;
26335;SDS011;14047;50.936;4.654;2024-02-26T06:53:03;12.73;;;8.02;;
26335;SDS011;14047;50.936;4.654;2024-02-26T06:55:29;10.05;;;7.22;;
26335;SDS011;14047;50.936;4.654;2024-02-26T06:57:55;10.77;;;7.57;;
26335;SDS011;14047;50.936;4.654;2024-02-26T07:00:21;11.40;;;7.40;;
26335;SDS011;14047;50.936;4.654;2024-02-26T07:02:47;10.50;;;7.68;;
26335;SDS011;14047;50.936;4.654;2024-02-26T07:05:13;11.25;;;7.60;;
26335;SDS011;14047;50.936;4.654;2024-02-26T07:07:39;12.05;;;7.13;;
26335;SDS011;14047;50.936;4.654;2024-02-26T07:10:05;9.38;;;5.80;;
26335;SDS011;14047;50.936;4.654;2024-02-26T07:12:32;8.27;;;5.93;;
26335;SDS011;14047;50.936;4.654;2024-02-26T07:14:58;8.98;;;6.18;;
26335;SDS011;14047;50.936;4.654;2024-02-26T07:17:24;11.88;;;7.57;;
26335;SDS011;14047;50.936;4.654;2024-02-26T07:19:50;9.70;;;6.68;;
26335;SDS011;14047;50.936;4.654;2024-02-26T07:22:16;10.50;;;7.82;;
26335;SDS011;14047;50.936;4.654;2024-02-26T07:24:41;9.98;;;6.88;;
26335;SDS011;14047;50.936;4.654;2024-02-26T07:27:07;9.10;;;6.93;;
26335;SDS011;14047;50.936;4.654;2024-02-26T07:29:33;12.73;;;7.75;;
26335;SDS011;14047;50.936;4.654;2024-02-26T07:31:59;14.68;;;8.15;;
26335;SDS011;14047;50.936;4.654;2024-02-26T07:34:25;16.05;;;7.43;;
26335;SDS011;14047;50.936;4.654;2024-02-26T07:36:55;10.20;;;7.40;;
26335;SDS011;14047;50.936;4.654;2024-02-26T07:39:21;10.50;;;7.00;;
26335;SDS011;14047;50.936;4.654;2024-02-26T07:41:48;12.32;;;7.70;;
26335;SDS011;14047;50.936;4.654;2024-02-26T07:44:17;14.07;;;7.95;;
26335;SDS011;14047;50.936;4.654;2024-02-26T07:46:43;7.95;;;6.10;;
26335;SDS011;14047;50.936;4.654;2024-02-26T07:49:09;10.70;;;6.50;;
26335;SDS011;14047;50.936;4.654;2024-02-26T07:51:35;11.30;;;7.05;;
26335;SDS011;14047;50.936;4.654;2024-02-26T07:54:01;10.52;;;7.35;;
26335;SDS011;14047;50.936;4.654;2024-02-26T07:56:27;12.48;;;6.95;;
26335;SDS011;14047;50.936;4.654;2024-02-26T07:58:53;11.05;;;7.72;;
26335;SDS011;14047;50.936;4.654;2024-02-26T08:01:19;10.57;;;7.13;;
26335;SDS011;14047;50.936;4.654;2024-02-26T08:03:45;9.15;;;6.85;;
26335;SDS011;14047;50.936;4.654;2024-02-26T08:06:11;10.27;;;7.45;;
26335;SDS011;14047;50.936;4.654;2024-02-26T08:08:37;9.10;;;5.90;;
26335;SDS011;14047;50.936;4.654;2024-02-26T08:11:03;10.90;;;6.80;;
26335;SDS011;14047;50.936;4.654;2024-02-26T08:13:29;8.40;;;5.85;;
26335;SDS011;14047;50.936;4.654;2024-02-26T08:15:55;10.68;;;7.90;;
26335;SDS011;14047;50.936;4.654;2024-02-26T08:18:21;9.60;;;6.35;;
26335;SDS011;14047;50.936;4.654;2024-02-26T08:20:51;10.43;;;6.97;;
26335;SDS011;14047;50.936;4.654;2024-02-26T08:23:17;6.22;;;4.20;;
26335;SDS011;14047;50.936;4.654;2024-02-26T08:25:43;8.25;;;5.88;;
26335;SDS011;14047;50.936;4.654;2024-02-26T08:28:09;13.40;;;6.90;;
26335;SDS011;14047;50.936;4.654;2024-02-26T08:30:38;9.48;;;6.68;;
26335;SDS011;14047;50.936;4.654;2024-02-26T08:33:04;9.50;;;6.75;;
26335;SDS011;14047;50.936;4.654;2024-02-26T08:35:30;9.77;;;6.90;;
26335;SDS011;14047;50.936;4.654;2024-02-26T08:37:56;7.68;;;5.95;;
26335;SDS011;14047;50.936;4.654;2024-02-26T08:40:22;9.68;;;6.32;;
26335;SDS011;14047;50.936;4.654;2024-02-26T08:42:48;12.32;;;7.60;;
26335;SDS011;14047;50.936;4.654;2024-02-26T08:45:14;10.10;;;6.75;;
26335;SDS011;14047;50.936;4.654;2024-02-26T08:47:40;9.60;;;6.95;;
26335;SDS011;14047;50.936;4.654;2024-02-26T08:50:06;9.27;;;6.30;;
26335;SDS011;14047;50.936;4.654;2024-02-26T08:52:34;8.07;;;6.45;;
26335;SDS011;14047;50.936;4.654;2024-02-26T08:55:00;9.38;;;6.45;;
26335;SDS011;14047;50.936;4.654;2024-02-26T08:57:26;12.32;;;6.93;;
26335;SDS011;14047;50.936;4.654;2024-02-26T08:59:52;8.05;;;5.20;;
26335;SDS011;14047;50.936;4.654;2024-02-26T09:02:18;11.07;;;6.60;;
26335;SDS011;14047;50.936;4.654;2024-02-26T09:04:45;10.57;;;7.78;;
26335;SDS011;14047;50.936;4.654;2024-02-26T09:07:11;11.65;;;7.07;;
26335;SDS011;14047;50.936;4.654;2024-02-26T09:09:37;10.55;;;7.10;;
26335;SDS011;14047;50.936;4.654;2024-02-26T09:12:03;8.90;;;6.30;;
26335;SDS011;14047;50.936;4.654;2024-02-26T09:14:29;8.48;;;5.88;;
26335;SDS011;14047;50.936;4.654;2024-02-26T09:16:55;10.77;;;7.05;;
26335;SDS011;14047;50.936;4.654;2024-02-26T09:19:21;8.45;;;6.18;;
26335;SDS011;14047;50.936;4.654;2024-02-26T09:21:47;8.45;;;6.55;;
26335;SDS011;14047;50.936;4.654;2024-02-26T09:24:13;8.75;;;6.47;;
26335;SDS011;14047;50.936;4.654;2024-02-26T09:26:38;9.95;;;6.85;;
26335;SDS011;14047;50.936;4.654;2024-02-26T09:29:04;11.25;;;7.55;;
26335;SDS011;14047;50.936;4.654;2024-02-26T09:31:31;11.35;;;7.53;;
26335;SDS011;14047;50.936;4.654;2024-02-26T09:33:57;15.40;;;7.90;;
26335;SDS011;14047;50.936;4.654;2024-02-26T09:36:23;10.93;;;6.97;;
26335;SDS011;14047;50.936;4.654;2024-02-26T09:38:49;12.13;;;7.82;;
26335;SDS011;14047;50.936;4.654;2024-02-26T09:41:15;12.25;;;7.68;;
26335;SDS011;14047;50.936;4.654;2024-02-26T09:43:42;11.60;;;6.80;;
26335;SDS011;14047;50.936;4.654;2024-02-26T09:46:10;12.00;;;7.57;;
26335;SDS011;14047;50.936;4.654;2024-02-26T09:48:37;8.65;;;5.60;;
26335;SDS011;14047;50.936;4.654;2024-02-26T09:51:03;9.73;;;7.25;;
26335;SDS011;14047;50.936;4.654;2024-02-26T09:53:30;9.27;;;7.40;;
26335;SDS011;14047;50.936;4.654;2024-02-26T09:55:58;11.25;;;6.72;;
26335;SDS011;14047;50.936;4.654;2024-02-26T09:58:25;8.48;;;6.28;;
26335;SDS011;14047;50.936;4.654;2024-02-26T10:00:55;8.48;;;6.05;;
26335;SDS011;14047;50.936;4.654;2024-02-26T10:03:38;7.10;;;4.97;;
26335;SDS011;14047;50.936;4.654;2024-02-26T10:06:06;9.32;;;6.20;;
26335;SDS011;14047;50.936;4.654;2024-02-26T10:08:34;7.30;;;4.68;;
26335;SDS011;14047;50.936;4.654;2024-02-26T10:11:02;7.57;;;5.70;;
26335;SDS011;14047;50.936;4.654;2024-02-26T10:13:30;8.02;;;5.47;;
26335;SDS011;14047;50.936;4.654;2024-02-26T10:15:56;8.57;;;5.30;;
26335;SDS011;14047;50.936;4.654;2024-02-26T10:18:25;7.25;;;5.03;;
26335;SDS011;14047;50.936;4.654;2024-02-26T10:20:59;6.00;;;4.00;;
26335;SDS011;14047;50.936;4.654;2024-02-26T10:23:26;6.85;;;4.55;;
26335;SDS011;14047;50.936;4.654;2024-02-26T10:25:53;7.47;;;4.80;;
26335;SDS011;14047;50.936;4.654;2024-02-26T10:28:20;6.22;;;4.78;;
26335;SDS011;14047;50.936;4.654;2024-02-26T10:30:46;7.15;;;4.93;;
26335;SDS011;14047;50.936;4.654;2024-02-26T10:33:12;5.95;;;4.53;;
26335;SDS011;14047;50.936;4.654;2024-02-26T10:35:39;6.95;;;5.28;;
26335;SDS011;14047;50.936;4.654;2024-02-26T10:38:10;8.35;;;4.40;;
26335;SDS011;14047;50.936;4.654;2024-02-26T10:40:37;8.32;;;4.68;;
26335;SDS011;14047;50.936;4.654;2024-02-26T10:43:03;6.57;;;4.35;;
26335;SDS011;14047;50.936;4.654;2024-02-26T10:45:29;7.70;;;4.47;;
26335;SDS011;14047;50.936;4.654;2024-02-26T10:47:57;6.32;;;4.60;;
26335;SDS011;14047;50.936;4.654;2024-02-26T10:50:23;7.03;;;4.75;;
26335;SDS011;14047;50.936;4.654;2024-02-26T10:52:49;6.93;;;4.78;;
26335;SDS011;14047;50.936;4.654;2024-02-26T10:55:17;4.82;;;3.80;;
26335;SDS011;14047;50.936;4.654;2024-02-26T10:57:44;5.90;;;4.25;;
26335;SDS011;14047;50.936;4.654;2024-02-26T11:00:13;6.50;;;4.65;;
26335;SDS011;14047;50.936;4.654;2024-02-26T11:02:41;5.15;;;3.40;;
26335;SDS011;14047;50.936;4.654;2024-02-26T11:05:07;5.30;;;3.78;;
26335;SDS011;14047;50.936;4.654;2024-02-26T11:07:36;7.30;;;4.68;;
26335;SDS011;14047;50.936;4.654;2024-02-26T11:10:04;5.63;;;3.40;;
26335;SDS011;14047;50.936;4.654;2024-02-26T11:12:34;4.85;;;3.75;;
26335;SDS011;14047;50.936;4.654;2024-02-26T11:15:02;5.40;;;3.58;;
26335;SDS011;14047;50.936;4.654;2024-02-26T11:17:29;6.13;;;3.92;;
26335;SDS011;14047;50.936;4.654;2024-02-26T11:19:57;4.95;;;3.75;;
26335;SDS011;14047;50.936;4.654;2024-02-26T11:22:27;4.07;;;2.65;;
26335;SDS011;14047;50.936;4.654;2024-02-26T11:24:57;5.40;;;3.25;;
26335;SDS011;14047;50.936;4.654;2024-02-26T11:27:23;5.43;;;3.63;;
26335;SDS011;14047;50.936;4.654;2024-02-26T11:29:58;4.55;;;3.30;;
26335;SDS011;14047;50.936;4.654;2024-02-26T11:32:26;5.43;;;3.50;;
26335;SDS011;14047;50.936;4.654;2024-02-26T11:34:53;4.60;;;3.28;;
26335;SDS011;14047;50.936;4.654;2024-02-26T11:37:20;6.15;;;3.58;;
26335;SDS011;14047;50.936;4.654;2024-02-26T11:39:46;5.65;;;2.90;;
26335;SDS011;14047;50.936;4.654;2024-02-26T11:42:15;4.22;;;2.95;;
26335;SDS011;14047;50.936;4.654;2024-02-26T11:44:42;9.25;;;3.20;;
26335;SDS011;14047;50.936;4.654;2024-02-26T11:47:18;4.00;;;2.90;;
26335;SDS011;14047;50.936;4.654;2024-02-26T11:49:45;4.28;;;2.88;;
26335;SDS011;14047;50.936;4.654;2024-02-26T11:52:12;6.65;;;3.58;;
26335;SDS011;14047;50.936;4.654;2024-02-26T11:54:52;4.95;;;3.70;;
26335;SDS011;14047;50.936;4.654;2024-02-26T11:57:19;4.95;;;3.75;;
26335;SDS011;14047;50.936;4.654;2024-02-26T11:59:50;4.97;;;3.35;;
26335;SDS011;14047;50.936;4.654;2024-02-26T12:02:38;2.78;;;2.45;;
26335;SDS011;14047;50.936;4.654;2024-02-26T12:05:07;3.13;;;2.60;;
26335;SDS011;14047;50.936;4.654;2024-02-26T12:07:39;4.00;;;3.35;;
26335;SDS011;14047;50.936;4.654;2024-02-26T12:10:17;3.67;;;2.55;;
26335;SDS011;14047;50.936;4.654;2024-02-26T12:15:23;4.82;;;3.30;;
26335;SDS011;14047;50.936;4.654;2024-02-26T12:17:49;5.88;;;3.85;;
26335;SDS011;14047;50.936;4.654;2024-02-26T12:20:16;4.72;;;3.45;;
26335;SDS011;14047;50.936;4.654;2024-02-26T12:22:44;7.13;;;3.63;;
26335;SDS011;14047;50.936;4.654;2024-02-26T12:25:14;4.05;;;3.30;;
26335;SDS011;14047;50.936;4.654;2024-02-26T12:27:41;4.72;;;3.58;;
26335;SDS011;14047;50.936;4.654;2024-02-26T12:30:07;6.90;;;3.33;;
26335;SDS011;14047;50.936;4.654;2024-02-26T12:32:34;5.50;;;3.60;;
26335;SDS011;14047;50.936;4.654;2024-02-26T12:35:00;4.50;;;3.28;;
26335;SDS011;14047;50.936;4.654;2024-02-26T12:37:27;4.68;;;3.42;;
26335;SDS011;14047;50.936;4.654;2024-02-26T12:39:54;4.88;;;3.05;;
26335;SDS011;14047;50.936;4.654;2024-02-26T12:42:19;5.68;;;3.30;;
26335;SDS011;14047;50.936;4.654;2024-02-26T12:44:46;5.05;;;3.22;;
26335;SDS011;14047;50.936;4.654;2024-02-26T12:47:12;4.22;;;3.30;;
26335;SDS011;14047;50.936;4.654;2024-02-26T12:49:48;3.30;;;2.72;;
26335;SDS011;14047;50.936;4.654;2024-02-26T12:52:14;4.40;;;3.10;;
26335;SDS011;14047;50.936;4.654;2024-02-26T12:54:42;5.00;;;3.33;;
26335;SDS011;14047;50.936;4.654;2024-02-26T12:57:09;4.07;;;3.42;;
26335;SDS011;14047;50.936;4.654;2024-02-26T12:59:36;4.45;;;3.22;;
26335;SDS011;14047;50.936;4.654;2024-02-26T13:02:03;5.80;;;4.20;;
26335;SDS011;14047;50.936;4.654;2024-02-26T13:04:30;5.55;;;4.10;;
26335;SDS011;14047;50.936;4.654;2024-02-26T13:06:56;5.55;;;4.30;;
26335;SDS011;14047;50.936;4.654;2024-02-26T13:09:28;6.78;;;3.95;;
26335;SDS011;14047;50.936;4.654;2024-02-26T13:11:57;8.77;;;3.80;;
26335;SDS011;14047;50.936;4.654;2024-02-26T13:14:24;5.72;;;4.05;;
26335;SDS011;14047;50.936;4.654;2024-02-26T13:16:56;5.50;;;4.00;;
26335;SDS011;14047;50.936;4.654;2024-02-26T13:19:23;8.63;;;4.90;;
26335;SDS011;14047;50.936;4.654;2024-02-26T13:21:49;8.05;;;4.57;;
26335;SDS011;14047;50.936;4.654;2024-02-26T13:24:15;7.28;;;4.95;;
26335;SDS011;14047;50.936;4.654;2024-02-26T13:26:43;6.22;;;4.30;;
26335;SDS011;14047;50.936;4.654;2024-02-26T13:29:09;9.13;;;5.68;;
26335;SDS011;14047;50.936;4.654;2024-02-26T13:31:43;7.63;;;5.25;;
26335;SDS011;14047;50.936;4.654;2024-02-26T13:34:09;8.32;;;5.63;;
26335;SDS011;14047;50.936;4.654;2024-02-26T13:36:34;8.30;;;5.70;;
26335;SDS011;14047;50.936;4.654;2024-02-26T13:39:01;8.40;;;5.20;;
26335;SDS011;14047;50.936;4.654;2024-02-26T13:41:30;9.30;;;6.13;;
26335;SDS011;14047;50.936;4.654;2024-02-26T13:43:57;9.48;;;6.30;;
26335;SDS011;14047;50.936;4.654;2024-02-26T13:46:23;10.07;;;6.43;;
26335;SDS011;14047;50.936;4.654;2024-02-26T13:48:49;12.60;;;6.07;;
26335;SDS011;14047;50.936;4.654;2024-02-26T13:51:15;11.27;;;6.55;;
26335;SDS011;14047;50.936;4.654;2024-02-26T13:53:42;11.20;;;6.82;;
26335;SDS011;14047;50.936;4.654;2024-02-26T13:56:09;12.73;;;6.05;;
26335;SDS011;14047;50.936;4.654;2024-02-26T13:58:35;10.07;;;6.15;;
26335;SDS011;14047;50.936;4.654;2024-02-26T14:01:01;7.35;;;5.35;;
26335;SDS011;14047;50.936;4.654;2024-02-26T14:03:28;12.05;;;6.70;;
26335;SDS011;14047;50.936;4.654;2024-02-26T14:05:54;11.55;;;6.75;;
26335;SDS011;14047;50.936;4.654;2024-02-26T14:08:22;6.60;;;4.60;;
26335;SDS011;14047;50.936;4.654;2024-02-26T14:10:48;12.57;;;7.13;;
26335;SDS011;14047;50.936;4.654;2024-02-26T14:13:14;11.43;;;6.60;;
26335;SDS011;14047;50.936;4.654;2024-02-26T14:15:40;12.15;;;6.70;;
26335;SDS011;14047;50.936;4.654;2024-02-26T14:18:06;12.18;;;6.50;;
26335;SDS011;14047;50.936;4.654;2024-02-26T14:20:33;9.63;;;5.88;;
26335;SDS011;14047;50.936;4.654;2024-02-26T14:22:58;13.07;;;6.47;;
26335;SDS011;14047;50.936;4.654;2024-02-26T14:25:25;10.95;;;6.68;;
26335;SDS011;14047;50.936;4.654;2024-02-26T14:27:51;12.63;;;7.35;;
26335;SDS011;14047;50.936;4.654;2024-02-26T14:30:17;13.98;;;7.35;;
26335;SDS011;14047;50.936;4.654;2024-02-26T14:32:43;11.18;;;6.78;;
26335;SDS011;14047;50.936;4.654;2024-02-26T14:35:09;9.90;;;6.10;;
26335;SDS011;14047;50.936;4.654;2024-02-26T14:37:36;8.85;;;5.47;;
26335;SDS011;14047;50.936;4.654;2024-02-26T14:40:02;8.73;;;5.07;;
26335;SDS011;14047;50.936;4.654;2024-02-26T14:42:28;8.57;;;5.43;;
26335;SDS011;14047;50.936;4.654;2024-02-26T14:44:55;9.27;;;5.88;;